SILO ALERT LOG


Silo ID Alert Type Alert Message Silo Type Points Depth (mm) Strength Temperature (°C) Humidity (%) Height (mm) Volume (㎥) Weight (t) Flag Time
WJWJR01 Humidity 습도센서 측정값이 80% 초과 77 7680 1097 23.1 89 -40 -4.524 0 0 2026-07-20 09:26:00.000
WJWJR01 Humidity 습도센서 측정값이 80% 초과 83 7720 1087 23.1 89.1 -80 -9.048 0 0 2026-07-20 08:25:59.000
WJWJR01 Humidity 습도센서 측정값이 80% 초과 77 7690 1101 23 89.4 -50 -5.655 0 0 2026-07-20 07:26:03.000
WJWJR01 Humidity 습도센서 측정값이 80% 초과 76 7700 1087 23 89 -60 -6.786 0 0 2026-07-20 06:26:01.000
WJWJR01 Humidity 습도센서 측정값이 80% 초과 76 7700 1075 23.1 88.7 -60 -6.786 0 0 2026-07-20 05:26:00.000
WJWJR01 Humidity 습도센서 측정값이 80% 초과 76 7690 1101 23.4 88 -50 -5.655 0 0 2026-07-20 04:26:00.000
WJWJR01 Humidity 습도센서 측정값이 80% 초과 76 7700 1078 23.6 87.4 -60 -6.786 0 0 2026-07-20 03:26:00.000
WJWJR01 Humidity 습도센서 측정값이 80% 초과 77 7690 1063 24 86.6 -50 -5.655 0 0 2026-07-20 02:26:05.000
WJWJR01 Humidity 습도센서 측정값이 80% 초과 75 7630 1095 24.4 85.4 9 1.131 0.715 0 2026-07-20 01:25:59.000
WJWJR01 Humidity 습도센서 측정값이 80% 초과 76 7690 1069 24.7 84.2 -50 -5.655 0 0 2026-07-20 00:26:08.000
WJWJR01 Humidity 습도센서 측정값이 80% 초과 77 7690 1093 25.3 83 -50 -5.655 0 0 2026-07-19 23:26:02.000
WJWJR01 Humidity 습도센서 측정값이 80% 초과 83 7680 1076 26.1 81.2 -40 -4.524 0 0 2026-07-19 22:25:59.000
WJWJR01 Humidity 습도센서 측정값이 80% 초과 76 7670 1062 29.4 81.1 -30 -3.393 0 0 2026-07-19 13:25:58.000
WJWJR01 Humidity 습도센서 측정값이 80% 초과 75 7700 1079 27.7 85.1 -60 -6.786 0 0 2026-07-19 12:25:53.000
WJWJR05 Humidity 습도센서 측정값이 80% 초과 56 7650 2746 28.2 80.6 69 7.917 5.005 0 2026-07-19 12:25:45.000
WJWJR01 Humidity 습도센서 측정값이 80% 초과 75 7650 1084 26.4 87.2 -10 -1.131 0 0 2026-07-19 11:25:57.000
WJWJR01 Humidity 습도센서 측정값이 80% 초과 77 7680 1054 25.6 89.8 -40 -4.524 0 0 2026-07-19 10:25:59.000
WJWJR01 Humidity 습도센서 측정값이 80% 초과 83 7700 1088 24.3 90.1 -60 -6.786 0 0 2026-07-19 09:25:57.000
WJWJR01 Humidity 습도센서 측정값이 80% 초과 76 7670 1096 23.4 90.7 -30 -3.393 0 0 2026-07-19 08:26:00.000
WJWJR01 Humidity 습도센서 측정값이 80% 초과 77 7670 1098 23 90.9 -30 -3.393 0 0 2026-07-19 07:26:00.000

[첫 페이지] [26] [27] [28] [29] 30 [31] [32] [33] [34] [마지막 페이지]